CORPUS CHRISTI, TX 60NM SSE of Corpus Christi, TX (42020)

Conditions for Friday

Daily
Weekly
Monthly
Marine Data Graph

Current Weather/Wave Observations

Air Temperature: 86° F
Humidity: 74
Wind direction (W Dir): ESE (115 - 124 Degrees)
Wind Speed (W Spd): 17.5 kts (20.1 mph)
Wind Gust (W Spd): 21.4 kts (24.6 mph)
Atmospheric Pressure (AP): 29.93 in

Updated: 7:30 PM CDT on September 20, 2019

Marine & Boating Location Search

Enter a coastal zip code for marine weather.

General Information

Location: 26.968 North -96.694 West
Buoy Type: 3-meter discus buoy
Buoy Hull: 3DV26
Payload: ARES payload
Owned by: NDBC
Windspeed: Measured by obtained from anemometer
Sea Surface: Measured by Intake

Weather and Wave Data

Time Temp Humidity Wind Dominant Wave Wind Wave Wave Swell Pressure
  Air
(°F)
Water
(°F)
  Dir Speed
(kts)
Speed
(mph)
Period
(sec)
Height
(ft)
Range
(ft)
Period
(sec)
Height
(ft)
Range
(ft)
Period
(sec)
Height
(ft)
Range
(ft)
Atmo.
(in)
Tend.
(in)
20:10 85 85 86 SE 17.5 20.1 - - - - - - 29.84 -
20:30 85 85 86 SE 17.5 20.1 - - - - - - 29.85 -
20:40 85 85 86 SE 17.5 20.1 - - - - - - 29.85 -
20:50 85 85 86 SE 17.5 20.1 6 5.25 exactly 5.2 6 4.92 4.10 - 5.74 - - - 29.86 -
21:00 85 85 86 SE 17.5 20.1 - - - - - - 29.86 +0.01
21:10 85 85 84 SE 17.5 20.1 - - - - - - 29.86 -
21:20 85 85 85 SE 17.5 20.1 - - - - - - 29.86 -
21:30 85 85 83 SE 17.5 20.1 - - - - - - 29.86 -
21:40 85 85 83 SE 17.5 20.1 - - - - - - 29.86 -
22:00 85 85 83 SE 17.5 20.1 - - - - - - 29.87 +0.03
22:10 85 85 84 SE 17.5 20.1 - - - - - - 29.87 -
22:30 85 85 81 SE 17.5 20.1 - - - - - - 29.88 -
22:40 85 85 82 SE 15.6 17.9 - - - - - - 29.88 -
23:10 85 85 81 SE 17.5 20.1 - - - - - - 29.88 -
23:30 85 85 79 SE 17.5 20.1 - - - - - - 29.88 -
23:50 85
-
78 SE 17.5 20.1 6 5.25 exactly 5.2 6 4.92 4.10 - 5.74 - - - 29.89 -
00:10 85 85 77 SE 17.5 20.1 - - - - - - 29.89 -
00:20 85 85 77 SE 17.5 20.1 - - - - - - 29.89 -
00:30 85 85 76 SE 17.5 20.1 - - - - - - 29.88 -
00:40 85 85 75 SSE 19.4 22.4 - - - - - - 29.88 -
00:50 85 85 77 SSE 19.4 22.4 6 5.58 exactly 5.6 6 4.92 4.10 - 5.74 - - - 29.87 -
01:10 85 85 76 SSE 19.4 22.4 - - - - - - 29.87 -
01:30 85 85 77 SSE 19.4 22.4 - - - - - - 29.88 -
01:40 85 85 76 SSE 19.4 22.4 - - - - - - 29.88 -
01:50 85 85 76 SSE 19.4 22.4 6 5.91 exactly 5.9 6 6.56 5.74 - 7.38 - - - 29.88 -
02:00 85 85 76 SSE 19.4 22.4 - - - - - - 29.88 +0.02
02:10 85 85 76 SSE 19.4 22.4 - - - - - - 29.88 -
02:30 85 85 75 SSE 19.4 22.4 - - - - - - 29.88 -
02:40 85 85 76 SSE 19.4 22.4 - - - - - - 29.88 -
02:50 85 85 77 SSE 17.5 20.1 6 5.91 exactly 5.9 6 6.56 5.74 - 7.38 - - - 29.88 -
03:10 85 85 80 SSE 17.5 20.1 - - - - - - 29.88 -
03:20 85 85 80 SSE 17.5 20.1 - - - - - - 29.88 -
03:30 85 85 80 SSE 17.5 20.1 - - - - - - 29.87 -
03:40 85 85 80 SSE 17.5 20.1 - - - - - - 29.87 -
03:50 85 85 81 SSE 17.5 20.1 6 5.58 exactly 5.6 6 4.92 4.10 - 5.74 - - - 29.87 -
04:00 85 85 81 SSE 17.5 20.1 - - - - - - 29.88 -
04:20 85 85 82 SSE 15.6 17.9 - - - - - - 29.88 -
04:30 85 85 82 SSE 15.6 17.9 - - - - - - 29.88 -
04:40 85 85 82 SSE 15.6 17.9 - - - - - - 29.88 -
04:50 85 85 82 SSE 13.6 15.7 6 5.58 exactly 5.6 6 4.92 4.10 - 5.74 - - - 29.88 -
05:00 85 85 81 SSE 15.6 17.9 - - - - - - 29.88 -0.01
05:10 85 85 82 SSE 15.6 17.9 - - - - - - 29.88 -
05:20 85 85 82 SE 15.6 17.9 - - - - - - 29.88 -
05:30 85 85 82 SSE 15.6 17.9 - - - - - - 29.88 -
06:20 85 85 81 SSE 15.6 17.9 - - - - - - 29.90 -
06:30 85 85 82 SSE 15.6 17.9 - - - - - - 29.90 -
06:50 85
-
77 SSE 15.6 17.9 6 5.25 exactly 5.2 6 4.92 4.10 - 5.74 - - - 29.90 -
07:00 85 85 75 SSE 15.6 17.9 - - - - - - 29.90 +0.03
07:10 85 85 79 SSE 15.6 17.9 - - - - - - 29.91 -
07:20 85 85 81 SE 15.6 17.9 - - - - - - 29.91 -
07:30 85 85 82 SE 13.6 15.7 - - - - - - 29.91 -
07:40 85 85 82 SE 13.6 15.7 - - - - - - 29.92 -
07:50 85 85 81 SSE 13.6 15.7 7 4.59 exactly 4.6 7 4.92 4.10 - 5.74 12 1.64 0.82 - 2.46 29.92 -
08:10 85 85 81 SE 13.6 15.7 - - - - - - 29.93 -
08:20 85 85 82 SSE 13.6 15.7 - - - - - - 29.93 -
08:30 85 85 81 SSE 15.6 17.9 - - - - - - 29.92 -
08:50 83 85 78 SE 19.4 22.4 6 4.92 exactly 4.9 6 4.92 4.10 - 5.74 - - - 29.93 -
09:00 83 85 79 SE 17.5 20.1 - - - - - - 29.93 +0.06
09:20 85 85 76 SE 13.6 15.7 - - - - - - 29.94 -
09:30 85 85 81 SE 13.6 15.7 - - - - - - 29.94 -
09:50 86 85 76 SE 15.6 17.9 6 4.92 exactly 4.9 6 4.92 4.10 - 5.74 - - - 29.95 -
10:10 86 85 73 SE 17.5 20.1 - - - - - - 29.96 -
10:20 86 85 73 SE 17.5 20.1 - - - - - - 29.96 -
10:30 86 85 74 SE 17.5 20.1 - - - - - - 29.96 -
10:40 86 85 75 SE 17.5 20.1 - - - - - - 29.96 -
10:50 86 85 75 SE 17.5 20.1 6 4.92 exactly 4.9 6 4.92 4.10 - 5.74 - - - 29.95 -
11:20 86 85 77 SE 15.6 17.9 - - - - - - 29.96 -
11:30 86 85 76 SE 15.6 17.9 - - - - - - 29.96 -
11:40 86 85 75 SE 17.5 20.1 - - - - - - 29.96 -
11:50 86 85 74 SE 17.5 20.1 6 5.25 exactly 5.2 6 4.92 4.10 - 5.74 - - - 29.96 -
12:10 86 85 72 SE 17.5 20.1 - - - - - - 29.96 -
12:20 86 85 73 SE 17.5 20.1 - - - - - - 29.96 -
12:40 86 85 75 SE 15.6 17.9 - - - - - - 29.96 -
12:50 86 85 77 SE 15.6 17.9 7 5.91 exactly 5.9 7 6.56 5.74 - 7.38 - - - 29.96 -
13:10 86 85 76 SE 15.6 17.9 - - - - - - 29.96 -
13:20 86 85 75 SE 15.6 17.9 - - - - - - 29.96 -
13:30 86 85 76 SE 15.6 17.9 - - - - - - 29.95 -
13:40 86 85 77 SE 15.6 17.9 - - - - - - 29.95 -
13:50 86 85 76 SE 15.6 17.9 6 5.25 exactly 5.2 6 4.92 4.10 - 5.74 12 1.64 0.82 - 2.46 29.95 -
14:10 86 86 75 SE 17.5 20.1 - - - - - - 29.94 -
14:20 86 86 75 SE 17.5 20.1 - - - - - - 29.94 -
14:40 86 86 75 SE 17.5 20.1 - - - - - - 29.94 -
15:10 86 86 76 SE 15.6 17.9 - - - - - - 29.93 -
15:30 86 86 76 SE 15.6 17.9 - - - - - - 29.93 -
15:50 86 86 77 SE 15.6 17.9 7 5.58 exactly 5.6 7 4.92 4.10 - 5.74 - - - 29.93 -
16:40 86 86 78 SE 15.6 17.9 - - - - - - 29.92 -
17:20 86 86 78 ESE 15.6 17.9 - - - - - - 29.92 -
17:30 86 86 77 SE 15.6 17.9 - - - - - - 29.92 -
17:40 86 86 76 SE 15.6 17.9 - - - - - - 29.92 -
18:10 86 86 77 SE 15.6 17.9 - - - - - - 29.91 -
18:20 86 86 76 SE 17.5 20.1 - - - - - - 29.92 -
18:30 86 86 77 ESE 17.5 20.1 - - - - - - 29.91 -
18:40 86 86 77 ESE 15.6 17.9 - - - - - - 29.92 -
19:00 86 86 76 ESE 17.5 20.1 - - - - - - 29.92 -
19:10 86 86 75 ESE 17.5 20.1 - - - - - - 29.92 -
19:30 86 86 74 ESE 17.5 20.1 - - - - - - 29.93 -

Detailed Wave Spectra

Time Water Depth Wave Height Spectral Peak Period Average Wave Period Sampling Interval Wave Record
20:00 276 ft 5.45 ft 6.7 sec 5.1 sec 0.6 sec 2400 sec
23:00 276 ft 5.35 ft 6.3 sec 4.9 sec 0.6 sec 2400 sec
00:00 276 ft 5.15 ft 5.9 sec 4.6 sec 0.6 sec 2400 sec
01:00 276 ft 5.64 ft 6.3 sec 4.8 sec 0.6 sec 2400 sec
03:00 276 ft 5.77 ft 6.3 sec 4.8 sec 0.6 sec 2400 sec
06:00 276 ft 5.31 ft 6.3 sec 4.8 sec 0.6 sec 2400 sec
08:00 276 ft 4.66 ft 6.7 sec 4.8 sec 0.6 sec 2400 sec
11:00 276 ft 4.76 ft 6.3 sec 4.8 sec 0.6 sec 2400 sec
12:00 276 ft 5.31 ft 6.3 sec 5.0 sec 0.6 sec 2400 sec
13:00 276 ft 5.87 ft 6.7 sec 5.3 sec 0.6 sec 2400 sec
14:00 276 ft 5.28 ft 6.3 sec 5.1 sec 0.6 sec 2400 sec
15:00 276 ft 5.35 ft 7.1 sec 5.1 sec 0.6 sec 2400 sec
17:00 276 ft 4.46 ft 6.3 sec 4.8 sec 0.6 sec 2400 sec
18:00 276 ft 5.28 ft 6.7 sec 5.1 sec 0.6 sec 2400 sec